Search for airport 
image banner adimage banner adimage banner ad
image banner ad

6G6 - Cove Valley

Located in Williamsburg, United States

ICAO - 6G6, IATA -

Data provided by Airmate  

General information

Coordinates: N40°27'16" W78°14'17"
Elevation is 1156 feet MSL.
Magnetic variation is -09° East
View others Airports in Pennsylvania

Operational data

Special qualification required
Current time UTC:
Current local time:
Weather at : KAOO - Altoona-Blair County ( 19 km )
METAR: KAOO 091453Z AUTO 16007KT 5SM RA OVC020 05/02 A3004 RMK AO2 SLP182 P0012 60013 T00500017 56014
TAF: KAOO 091131Z 0912/1012 24006KT P6SM BKN100 FM091400 15007KT 4SM -RA BR OVC020 FM091700 13010G20KT 2SM -RA BR OVC007 WS020/18040KT FM100200 34008G16KT 2SM -RA BR OVC006 FM100800 33008G15KT P6SM BKN009 OVC012
View NOTAMs / SUP AIP / TFR affecting this airport [VIEW]
Communications frequencies: [VIEW]

Runways:

RWY identifierQFULength (ft)Width (ft)SurfaceLDA (ft)
042750100GRASS
222750100GRASS

Airport contact information

Address: Williamsburg United States

Satellite view of 6G6